Time;durP1;ratioP1;P1;durP2;ratioP2;P2;SDS_P1;SDS_P2;PMS_P1;PMS_P2;Temp;Humidity;BMP_temperature;BMP_pressure;BME280_temperature;BME280_humidity;BME280_pressure;Samples;Min_cycle;Max_cycle;Signal;HPM_P1;HPM_P2
2024/04/14 00:01:49;;;;;;;;;;;15.80;48.60;;;;;;5360647;26;20252;-91
2024/04/14 00:04:15;;;;;;;;;;;15.70;49.40;;;;;;5360623;26;19929;-90
2024/04/14 00:06:40;;;;;;;;;;;15.60;49.20;;;;;;5360075;26;20357;-91
2024/04/14 00:09:06;;;;;;;;;;;15.50;49.50;;;;;;5358853;26;20287;-91
2024/04/14 00:11:32;;;;;;;;;;;15.50;49.20;;;;;;5360074;26;20285;-90
2024/04/14 00:13:57;;;;;;;;;;;15.40;49.30;;;;;;5359953;26;20348;-91
2024/04/14 00:16:23;;;;;;;;;;;15.40;49.50;;;;;;5360710;26;19937;-91
2024/04/14 00:18:48;;;;;;;;;;;15.40;49.80;;;;;;5359750;26;19929;-91
2024/04/14 00:21:14;;;;;;;;;;;15.40;49.80;;;;;;5360738;26;19965;-91
2024/04/14 00:23:40;;;;;;;;;;;15.40;49.70;;;;;;5360716;26;20356;-91
2024/04/14 00:26:08;;;;;;;;;;;15.20;50.70;;;;;;5360563;26;19929;-91
2024/04/14 00:28:34;;;;;;;;;;;15.40;50.50;;;;;;5361121;26;20355;-91
2024/04/14 00:30:59;;;;;;;;;;;15.40;50.60;;;;;;5360660;26;19929;-91
2024/04/14 00:33:25;;;;;;;;;;;15.30;51.30;;;;;;5360595;26;19935;-91
2024/04/14 00:35:51;;;;;;;;;;;15.30;51.40;;;;;;5360160;26;19929;-91
2024/04/14 00:38:16;;;;;;;;;;;15.30;51.20;;;;;;5358913;26;19940;-91
2024/04/14 00:40:42;;;;;;;;;;;15.20;51.60;;;;;;5359733;26;19929;-91
2024/04/14 00:43:11;;;;;;;;;;;15.20;52.20;;;;;;5360016;26;19933;-91
2024/04/14 00:45:37;;;;;;;;;;;14.90;52.80;;;;;;5360174;26;19977;-91
2024/04/14 00:48:03;;;;;;;;;;;14.70;54.00;;;;;;5359588;26;19979;-91
2024/04/14 00:50:29;;;;;;;;;;;14.50;54.60;;;;;;5360554;26;19941;-91
2024/04/14 00:52:54;;;;;;;;;;;14.40;55.60;;;;;;5359738;26;19929;-91
2024/04/14 00:55:20;;;;;;;;;;;14.50;56.00;;;;;;5360645;26;19955;-91
2024/04/14 00:57:47;;;;;;;;;;;14.70;55.80;;;;;;5360377;26;20002;-91
2024/04/14 01:00:12;;;;;;;;;;;14.50;57.40;;;;;;5360170;26;19936;-91
2024/04/14 01:02:38;;;;;;;;;;;14.40;59.50;;;;;;5360192;26;20294;-91
2024/04/14 01:05:04;;;;;;;;;;;14.50;61.60;;;;;;5359934;26;20355;-91
2024/04/14 01:07:30;;;;;;;;;;;14.30;64.80;;;;;;5358769;26;20002;-91
2024/04/14 01:09:57;;;;;;;;;;;14.40;65.90;;;;;;5359072;26;19929;-91
2024/04/14 01:12:22;;;;;;;;;;;14.60;65.20;;;;;;5360132;26;19935;-91
2024/04/14 01:14:48;;;;;;;;;;;14.80;64.50;;;;;;5359813;26;19929;-91
2024/04/14 01:17:13;;;;;;;;;;;14.50;65.10;;;;;;5359627;26;19939;-91
2024/04/14 01:19:39;;;;;;;;;;;14.20;68.60;;;;;;5359796;26;19965;-91
2024/04/14 01:22:05;;;;;;;;;;;14.10;70.50;;;;;;5359902;26;20321;-91
2024/04/14 01:24:30;;;;;;;;;;;14.00;73.20;;;;;;5359647;26;19929;-91
2024/04/14 01:26:56;;;;;;;;;;;13.80;76.00;;;;;;5359940;26;20006;-91
2024/04/14 01:29:21;;;;;;;;;;;13.90;75.40;;;;;;5360133;26;19929;-91
2024/04/14 01:31:47;;;;;;;;;;;13.90;75.90;;;;;;5359881;26;19936;-91
2024/04/14 01:34:17;;;;;;;;;;;14.10;75.80;;;;;;5359265;26;20024;-91
2024/04/14 01:36:43;;;;;;;;;;;14.20;74.70;;;;;;5359222;26;19929;-91
2024/04/14 01:39:09;;;;;;;;;;;14.40;74.70;;;;;;5358425;26;19929;-91
2024/04/14 01:41:34;;;;;;;;;;;14.00;78.70;;;;;;5359639;26;19935;-91
2024/04/14 01:44:00;;;;;;;;;;;14.00;83.20;;;;;;5359314;26;19936;-91
2024/04/14 01:46:25;;;;;;;;;;;14.10;85.90;;;;;;5358861;26;20356;-91
2024/04/14 01:48:51;;;;;;;;;;;13.80;93.40;;;;;;5359437;26;19929;-91
2024/04/14 01:51:16;;;;;;;;;;;13.80;94.60;;;;;;5359500;26;19998;-91
2024/04/14 01:53:42;;;;;;;;;;;13.40;99.80;;;;;;5359437;26;19929;-91
2024/04/14 01:56:08;;;;;;;;;;;13.50;99.90;;;;;;5359314;26;19958;-91
2024/04/14 01:58:33;;;;;;;;;;;13.80;99.90;;;;;;5388099;26;20447;-91
2024/04/14 02:00:59;;;;;;;;;;;13.40;99.90;;;;;;5359010;26;19941;-91
2024/04/14 02:03:25;;;;;;;;;;;13.40;99.90;;;;;;5358849;26;19933;-91
2024/04/14 02:05:57;;;;;;;;;;;13.30;99.90;;;;;;5387270;26;19935;-91
2024/04/14 02:08:22;;;;;;;;;;;13.60;99.90;;;;;;5387068;26;20375;-90
2024/04/14 02:10:48;;;;;;;;;;;13.70;99.90;;;;;;5358698;26;19930;-91
2024/04/14 02:13:13;;;;;;;;;;;14.10;99.90;;;;;;5358870;26;19929;-91
2024/04/14 02:15:40;;;;;;;;;;;14.00;99.90;;;;;;5358354;26;20362;-91
2024/04/14 02:18:05;;;;;;;;;;;13.90;99.90;;;;;;5358551;26;19929;-91
2024/04/14 02:20:31;;;;;;;;;;;13.70;99.90;;;;;;5358969;26;19929;-91
2024/04/14 02:22:57;;;;;;;;;;;13.40;99.90;;;;;;5358367;26;19929;-91
2024/04/14 02:25:22;;;;;;;;;;;13.20;99.90;;;;;;5358833;26;19940;-91
2024/04/14 02:27:48;;;;;;;;;;;13.10;99.90;;;;;;5358912;26;19929;-90
2024/04/14 02:30:14;;;;;;;;;;;13.60;99.90;;;;;;5358419;26;20359;-91
2024/04/14 02:32:39;;;;;;;;;;;13.80;99.90;;;;;;5357869;26;19929;-91
2024/04/14 02:35:06;;;;;;;;;;;13.80;99.90;;;;;;5357252;26;19929;-91
2024/04/14 02:37:32;;;;;;;;;;;13.60;99.90;;;;;;5358203;26;20420;-91
2024/04/14 02:39:58;;;;;;;;;;;13.70;99.90;;;;;;5387403;26;19957;-91
2024/04/14 02:42:23;;;;;;;;;;;13.60;99.90;;;;;;5358583;26;19939;-91
2024/04/14 02:44:49;;;;;;;;;;;13.70;99.90;;;;;;5387345;26;19929;-91
2024/04/14 02:47:14;;;;;;;;;;;13.70;99.90;;;;;;5358450;26;19936;-91
2024/04/14 02:49:40;;;;;;;;;;;13.30;99.90;;;;;;5358250;26;19929;-91
2024/04/14 02:52:08;;;;;;;;;;;13.40;99.90;;;;;;5358055;26;19936;-91
2024/04/14 02:54:34;;;;;;;;;;;13.20;99.90;;;;;;5359030;26;19929;-91
2024/04/14 02:57:00;;;;;;;;;;;13.30;99.90;;;;;;5358265;26;19929;-91
2024/04/14 02:59:25;;;;;;;;;;;13.70;99.90;;;;;;5358254;26;19936;-91
2024/04/14 03:01:51;;;;;;;;;;;13.30;99.90;;;;;;5357113;26;20455;-91
2024/04/14 03:04:16;;;;;;;;;;;13.30;99.90;;;;;;5357335;26;19936;-91
2024/04/14 03:06:42;;;;;;;;;;;13.10;99.90;;;;;;5357372;26;19928;-91
2024/04/14 03:09:07;;;;;;;;;;;13.10;99.90;;;;;;5357715;26;19998;-91
2024/04/14 03:11:33;;;;;;;;;;;13.00;99.90;;;;;;5358361;26;19965;-91
2024/04/14 03:13:58;;;;;;;;;;;12.70;99.90;;;;;;5357595;26;19999;-91
2024/04/14 03:16:24;;;;;;;;;;;12.80;99.90;;;;;;5358299;26;19929;-91
2024/04/14 03:18:49;;;;;;;;;;;13.00;99.90;;;;;;5358036;26;19937;-91
2024/04/14 03:21:15;;;;;;;;;;;12.70;99.90;;;;;;5358200;26;19929;-90
2024/04/14 03:23:42;;;;;;;;;;;12.60;99.90;;;;;;5358212;26;20351;-90
2024/04/14 03:26:07;;;;;;;;;;;12.80;99.90;;;;;;5358361;26;19928;-91
2024/04/14 03:28:34;;;;;;;;;;;12.90;99.90;;;;;;5357972;26;19940;-91
2024/04/14 03:31:00;;;;;;;;;;;13.10;99.90;;;;;;5356581;26;20005;-91
2024/04/14 03:33:27;;;;;;;;;;;13.20;99.90;;;;;;5357807;26;19937;-91
2024/04/14 03:36:00;;;;;;;;;;;13.20;99.90;;;;;;5357033;26;20259;-91
2024/04/14 03:38:25;;;;;;;;;;;13.00;99.90;;;;;;5387032;26;19937;-91
2024/04/14 03:40:54;;;;;;;;;;;12.70;99.90;;;;;;5357163;26;19929;-91
2024/04/14 03:43:20;;;;;;;;;;;12.70;99.90;;;;;;5358072;26;19998;-91
2024/04/14 03:45:45;;;;;;;;;;;12.40;99.90;;;;;;5357890;26;19969;-91
2024/04/14 03:48:11;;;;;;;;;;;12.40;99.90;;;;;;5357425;26;19929;-91
2024/04/14 03:50:36;;;;;;;;;;;12.40;99.90;;;;;;5357416;26;19933;-91
2024/04/14 03:53:02;;;;;;;;;;;12.30;99.90;;;;;;5357432;26;19957;-91
2024/04/14 03:55:28;;;;;;;;;;;12.30;99.90;;;;;;5357701;26;19998;-91
2024/04/14 03:57:53;;;;;;;;;;;12.10;99.90;;;;;;5357605;26;19929;-91
2024/04/14 04:00:19;;;;;;;;;;;12.20;99.90;;;;;;5356545;26;19940;-91
2024/04/14 04:02:44;;;;;;;;;;;12.70;99.90;;;;;;5386038;26;19929;-92
2024/04/14 04:05:10;;;;;;;;;;;12.90;99.90;;;;;;5357061;26;19937;-91
2024/04/14 04:07:35;;;;;;;;;;;12.80;99.90;;;;;;5357435;26;20360;-91
2024/04/14 04:10:01;;;;;;;;;;;12.50;99.90;;;;;;5356178;26;19929;-91
2024/04/14 04:12:26;;;;;;;;;;;12.40;99.90;;;;;;5356996;26;20367;-91
2024/04/14 04:14:52;;;;;;;;;;;12.30;99.90;;;;;;5356481;26;20427;-91
2024/04/14 04:17:18;;;;;;;;;;;12.30;99.90;;;;;;5356909;26;19961;-90
2024/04/14 04:19:43;;;;;;;;;;;12.40;99.90;;;;;;5356966;26;19937;-91
2024/04/14 04:22:09;;;;;;;;;;;12.40;99.90;;;;;;5389467;26;19929;-91
2024/04/14 04:24:34;;;;;;;;;;;12.50;99.90;;;;;;5360163;26;19935;-91
2024/04/14 04:27:00;;;;;;;;;;;12.30;99.90;;;;;;5360137;26;20011;-91
2024/04/14 04:29:27;;;;;;;;;;;12.20;99.90;;;;;;5358583;26;19929;-91
2024/04/14 04:31:54;;;;;;;;;;;12.00;99.90;;;;;;5359641;26;19929;-91
2024/04/14 04:34:20;;;;;;;;;;;11.80;99.90;;;;;;5420337;26;19965;-91
2024/04/14 04:36:46;;;;;;;;;;;11.90;99.90;;;;;;5360319;26;19929;-91
2024/04/14 04:39:11;;;;;;;;;;;11.70;99.90;;;;;;5358965;26;19936;-91
2024/04/14 04:41:37;;;;;;;;;;;11.80;99.90;;;;;;5360316;26;20374;-91
2024/04/14 04:44:05;;;;;;;;;;;11.80;99.90;;;;;;5360161;26;19930;-91
2024/04/14 04:46:31;;;;;;;;;;;11.90;99.90;;;;;;5360751;26;19957;-91
2024/04/14 04:48:56;;;;;;;;;;;12.70;99.90;;;;;;5359795;26;19929;-91
2024/04/14 04:51:22;;;;;;;;;;;12.70;99.90;;;;;;5360132;26;19940;-91
2024/04/14 04:53:48;;;;;;;;;;;13.00;99.90;;;;;;5359784;26;19936;-91
2024/04/14 04:56:13;;;;;;;;;;;13.30;99.90;;;;;;5360146;26;19933;-91
2024/04/14 04:58:39;;;;;;;;;;;13.10;99.90;;;;;;5387838;26;19936;-91
2024/04/14 05:01:04;;;;;;;;;;;13.20;99.90;;;;;;5358696;26;19929;-91
2024/04/14 05:03:30;;;;;;;;;;;13.00;99.90;;;;;;5359648;26;19971;-91
2024/04/14 05:05:56;;;;;;;;;;;13.30;99.90;;;;;;5359438;26;19976;-91
2024/04/14 05:08:23;;;;;;;;;;;13.50;99.90;;;;;;5353054;26;19937;-91
2024/04/14 05:10:48;;;;;;;;;;;13.70;99.90;;;;;;5354353;26;19930;-91
2024/04/14 05:13:14;;;;;;;;;;;13.50;99.90;;;;;;5354170;26;20248;-91
2024/04/14 05:15:41;;;;;;;;;;;13.10;99.90;;;;;;5383372;26;19936;-91
2024/04/14 05:18:06;;;;;;;;;;;13.30;99.90;;;;;;5353611;26;19933;-91
2024/04/14 05:20:32;;;;;;;;;;;13.20;99.90;;;;;;5382999;26;19999;-91
2024/04/14 05:22:58;;;;;;;;;;;13.40;99.90;;;;;;5354054;26;20237;-91
2024/04/14 05:25:23;;;;;;;;;;;13.40;99.90;;;;;;5353934;26;19942;-91
2024/04/14 05:27:49;;;;;;;;;;;13.10;99.90;;;;;;5352369;26;19966;-91
2024/04/14 05:30:15;;;;;;;;;;;13.10;99.90;;;;;;5353192;26;19930;-91
2024/04/14 05:32:40;;;;;;;;;;;13.30;99.90;;;;;;5352286;26;19936;-91
2024/04/14 05:35:06;;;;;;;;;;;13.20;99.90;;;;;;5353627;26;19929;-91
2024/04/14 05:37:31;;;;;;;;;;;13.00;99.90;;;;;;5353262;26;20344;-91
2024/04/14 05:39:57;;;;;;;;;;;13.30;99.90;;;;;;5353791;26;19999;-90
2024/04/14 05:42:22;;;;;;;;;;;13.80;99.90;;;;;;5353735;26;19969;-91
2024/04/14 05:44:49;;;;;;;;;;;13.20;99.90;;;;;;5353816;26;19937;-91
2024/04/14 05:47:15;;;;;;;;;;;13.60;99.90;;;;;;5353690;26;20422;-91
2024/04/14 05:49:41;;;;;;;;;;;13.50;99.90;;;;;;5353819;26;19937;-91
2024/04/14 05:52:06;;;;;;;;;;;13.40;99.90;;;;;;5382878;26;19929;-91
2024/04/14 05:54:32;;;;;;;;;;;13.50;99.90;;;;;;5382838;26;20380;-91
2024/04/14 05:56:57;;;;;;;;;;;13.10;99.90;;;;;;5351781;26;19936;-91
2024/04/14 05:59:23;;;;;;;;;;;12.60;99.90;;;;;;5352511;26;20356;-91
2024/04/14 06:01:49;;;;;;;;;;;12.90;99.90;;;;;;5353715;26;19929;-91
2024/04/14 06:04:15;;;;;;;;;;;13.10;99.90;;;;;;5382415;26;19929;-91
2024/04/14 06:06:41;;;;;;;;;;;13.40;99.90;;;;;;5382272;26;19929;-91
2024/04/14 06:09:06;;;;;;;;;;;13.70;99.90;;;;;;5352875;26;19969;-91
2024/04/14 06:11:32;;;;;;;;;;;13.90;99.90;;;;;;5352801;26;20352;-91
2024/04/14 06:13:57;;;;;;;;;;;14.00;99.90;;;;;;5352815;26;19929;-91
2024/04/14 06:16:23;;;;;;;;;;;13.60;99.90;;;;;;5353047;26;19930;-91
2024/04/14 06:18:48;;;;;;;;;;;13.40;99.90;;;;;;5353028;26;19933;-91
2024/04/14 06:21:14;;;;;;;;;;;13.90;99.90;;;;;;5352691;26;19930;-91
2024/04/14 06:23:40;;;;;;;;;;;14.00;99.90;;;;;;5353297;26;19929;-91
2024/04/14 06:26:06;;;;;;;;;;;13.20;99.90;;;;;;5380236;26;19937;-91
2024/04/14 06:28:33;;;;;;;;;;;13.20;99.90;;;;;;5352136;26;19937;-91
2024/04/14 06:30:59;;;;;;;;;;;13.40;99.90;;;;;;5353662;26;20000;-91
2024/04/14 06:33:25;;;;;;;;;;;13.70;99.90;;;;;;5352732;26;19938;-91
2024/04/14 06:35:51;;;;;;;;;;;13.70;99.90;;;;;;5352439;26;19929;-91
2024/04/14 06:38:17;;;;;;;;;;;14.00;99.90;;;;;;5352781;26;19969;-91
2024/04/14 06:40:44;;;;;;;;;;;14.30;99.90;;;;;;5353501;26;19937;-91
2024/04/14 06:43:10;;;;;;;;;;;14.80;99.90;;;;;;5352208;26;19933;-91
2024/04/14 06:45:35;;;;;;;;;;;14.20;99.90;;;;;;5353102;26;19936;-91
2024/04/14 06:48:01;;;;;;;;;;;14.20;99.90;;;;;;5352750;26;19945;-91
2024/04/14 06:50:27;;;;;;;;;;;14.30;99.90;;;;;;5352986;26;20418;-91
2024/04/14 06:52:52;;;;;;;;;;;14.30;99.90;;;;;;5352800;26;19933;-91
2024/04/14 06:55:18;;;;;;;;;;;14.60;99.90;;;;;;5380832;26;19940;-91
2024/04/14 06:57:44;;;;;;;;;;;14.30;99.90;;;;;;5352107;26;19936;-91
2024/04/14 07:00:10;;;;;;;;;;;14.00;99.90;;;;;;5352626;26;19937;-91
2024/04/14 07:02:36;;;;;;;;;;;14.20;99.90;;;;;;5352461;26;19936;-91
2024/04/14 07:05:02;;;;;;;;;;;13.80;99.90;;;;;;5351950;26;19930;-91
2024/04/14 07:07:28;;;;;;;;;;;13.40;99.90;;;;;;5351963;26;20376;-91
2024/04/14 07:09:53;;;;;;;;;;;13.40;99.90;;;;;;5352288;26;19929;-91
2024/04/14 07:12:19;;;;;;;;;;;14.20;99.90;;;;;;5351764;26;19929;-91
2024/04/14 07:14:44;;;;;;;;;;;14.00;99.90;;;;;;5352413;26;19929;-91
2024/04/14 07:17:10;;;;;;;;;;;14.20;99.90;;;;;;5381655;26;19930;-91
2024/04/14 07:19:36;;;;;;;;;;;14.50;99.90;;;;;;5352256;26;19929;-91
2024/04/14 07:22:01;;;;;;;;;;;14.60;99.90;;;;;;5352339;26;19930;-91
2024/04/14 07:24:27;;;;;;;;;;;14.60;99.30;;;;;;5350421;26;20248;-91
2024/04/14 07:26:52;;;;;;;;;;;14.60;99.00;;;;;;5350372;26;19949;-91
2024/04/14 07:29:18;;;;;;;;;;;14.70;97.60;;;;;;5351839;26;20363;-91
2024/04/14 07:31:44;;;;;;;;;;;15.00;97.90;;;;;;5352160;26;19929;-91
2024/04/14 07:34:09;;;;;;;;;;;15.10;97.70;;;;;;5351447;26;19929;-91
2024/04/14 07:36:35;;;;;;;;;;;15.10;98.90;;;;;;5352133;26;19945;-91
2024/04/14 07:39:00;;;;;;;;;;;15.10;98.40;;;;;;5351949;26;19966;-91
2024/04/14 07:41:26;;;;;;;;;;;15.10;98.00;;;;;;5351971;26;20296;-91
2024/04/14 07:43:54;;;;;;;;;;;15.10;96.10;;;;;;5351323;26;20375;-91
2024/04/14 07:46:22;;;;;;;;;;;14.70;99.70;;;;;;5352775;26;19930;-91
2024/04/14 07:48:49;;;;;;;;;;;14.80;97.00;;;;;;5352498;26;19930;-91
2024/04/14 07:51:15;;;;;;;;;;;14.90;94.90;;;;;;5351964;26;20429;-91
2024/04/14 07:53:40;;;;;;;;;;;15.10;93.20;;;;;;5350908;26;19937;-91
2024/04/14 07:56:06;;;;;;;;;;;15.20;92.80;;;;;;5352108;26;19930;-91
2024/04/14 07:58:32;;;;;;;;;;;15.70;91.10;;;;;;5355157;26;19937;-91
2024/04/14 08:00:58;;;;;;;;;;;15.50;91.20;;;;;;5354356;26;19930;-91
2024/04/14 08:03:23;;;;;;;;;;;15.60;86.50;;;;;;5355046;26;20418;-91
2024/04/14 08:05:49;;;;;;;;;;;15.60;83.10;;;;;;5384354;26;19936;-91
2024/04/14 08:08:14;;;;;;;;;;;15.60;78.60;;;;;;5354833;26;20263;-91
2024/04/14 08:10:40;;;;;;;;;;;15.30;86.50;;;;;;5383904;26;19933;-91
2024/04/14 08:13:06;;;;;;;;;;;15.30;87.30;;;;;;5353457;26;19940;-91
2024/04/14 08:15:31;;;;;;;;;;;15.30;88.60;;;;;;5354546;26;20264;-91
2024/04/14 08:17:58;;;;;;;;;;;15.40;88.20;;;;;;5354327;26;19937;-91
2024/04/14 08:20:24;;;;;;;;;;;15.50;91.70;;;;;;5354322;26;19940;-91
2024/04/14 08:22:49;;;;;;;;;;;15.50;91.00;;;;;;5383923;26;20007;-91
2024/04/14 08:25:15;;;;;;;;;;;15.70;91.10;;;;;;5353540;26;19938;-91
2024/04/14 08:27:41;;;;;;;;;;;16.10;89.40;;;;;;5354705;26;19957;-91
2024/04/14 08:30:07;;;;;;;;;;;16.00;88.30;;;;;;5353910;26;20363;-91
2024/04/14 08:32:32;;;;;;;;;;;15.70;83.50;;;;;;5354611;26;19930;-91
2024/04/14 08:34:59;;;;;;;;;;;15.00;81.00;;;;;;5354012;26;19936;-91
2024/04/14 08:37:25;;;;;;;;;;;15.00;85.80;;;;;;5354645;26;19941;-91
2024/04/14 08:39:50;;;;;;;;;;;14.80;86.00;;;;;;5354555;26;19998;-91
2024/04/14 08:42:17;;;;;;;;;;;14.90;86.10;;;;;;5353462;26;19930;-91
2024/04/14 08:44:44;;;;;;;;;;;15.70;78.40;;;;;;5354143;26;19965;-91
2024/04/14 08:47:10;;;;;;;;;;;15.60;71.30;;;;;;5383391;26;19934;-91
2024/04/14 08:49:37;;;;;;;;;;;15.30;72.00;;;;;;5353704;26;20322;-91
2024/04/14 08:52:04;;;;;;;;;;;15.90;67.30;;;;;;5353698;26;20349;-91
2024/04/14 08:54:29;;;;;;;;;;;15.90;65.00;;;;;;5353428;26;19929;-91
2024/04/14 08:56:56;;;;;;;;;;;16.10;63.70;;;;;;5353872;26;20289;-91
2024/04/14 08:59:22;;;;;;;;;;;16.40;62.30;;;;;;5383298;26;19930;-91
2024/04/14 09:01:48;;;;;;;;;;;16.70;60.50;;;;;;5354122;26;19938;-91
2024/04/14 09:04:15;;;;;;;;;;;16.90;59.20;;;;;;5383225;26;19930;-91
2024/04/14 09:06:42;;;;;;;;;;;16.70;59.80;;;;;;5383471;26;19937;-91
2024/04/14 09:09:08;;;;;;;;;;;16.90;59.00;;;;;;5353849;26;19929;-91
2024/04/14 09:11:37;;;;;;;;;;;17.10;58.00;;;;;;5382903;26;19929;-91
2024/04/14 09:14:02;;;;;;;;;;;17.00;55.70;;;;;;5353957;26;19937;-91
2024/04/14 09:16:28;;;;;;;;;;;16.20;57.40;;;;;;5354134;26;20451;-91
2024/04/14 09:18:53;;;;;;;;;;;16.00;60.90;;;;;;5353142;26;19941;-91
2024/04/14 09:21:19;;;;;;;;;;;15.10;61.70;;;;;;5353480;26;20329;-91
2024/04/14 09:23:44;;;;;;;;;;;14.60;69.80;;;;;;5353169;26;19929;-91
2024/04/14 09:26:10;;;;;;;;;;;15.00;69.50;;;;;;5353859;26;20052;-91
2024/04/14 09:28:36;;;;;;;;;;;15.60;67.60;;;;;;5353569;26;19930;-91
2024/04/14 09:31:01;;;;;;;;;;;16.10;64.10;;;;;;5353908;26;19941;-91
2024/04/14 09:33:27;;;;;;;;;;;15.90;63.90;;;;;;5353725;26;20354;-91
2024/04/14 09:35:53;;;;;;;;;;;16.10;63.20;;;;;;5353840;26;19936;-91
2024/04/14 09:38:18;;;;;;;;;;;16.30;61.10;;;;;;5353348;26;19929;-91
2024/04/14 09:40:44;;;;;;;;;;;16.50;60.00;;;;;;5353395;26;19937;-91
2024/04/14 09:43:10;;;;;;;;;;;16.60;57.80;;;;;;5353425;26;19954;-91
2024/04/14 09:45:36;;;;;;;;;;;16.00;59.40;;;;;;5353666;26;19941;-91
2024/04/14 09:48:02;;;;;;;;;;;15.80;57.70;;;;;;5353089;26;20353;-91
2024/04/14 09:50:29;;;;;;;;;;;16.60;54.30;;;;;;5353021;26;19936;-91
2024/04/14 09:52:56;;;;;;;;;;;16.90;53.80;;;;;;5352722;26;20010;-91
2024/04/14 09:55:21;;;;;;;;;;;17.20;54.70;;;;;;5353798;26;19937;-91
2024/04/14 09:57:50;;;;;;;;;;;17.00;54.10;;;;;;5353464;26;19945;-91
2024/04/14 10:00:16;;;;;;;;;;;17.20;54.50;;;;;;5353402;26;19929;-91
2024/04/14 10:02:47;;;;;;;;;;;17.50;52.50;;;;;;5353881;26;19929;-91
2024/04/14 10:05:13;;;;;;;;;;;17.30;53.10;;;;;;5352353;26;19937;-91
2024/04/14 10:07:39;;;;;;;;;;;17.70;51.30;;;;;;5352583;26;19930;-90
2024/04/14 10:10:07;;;;;;;;;;;18.00;50.80;;;;;;5358362;26;19935;-91
2024/04/14 10:12:33;;;;;;;;;;;17.80;49.80;;;;;;5388321;26;19929;-92
2024/04/14 10:15:08;;;;;;;;;;;17.70;50.80;;;;;;5357855;26;19929;-91
2024/04/14 10:17:34;;;;;;;;;;;17.20;50.50;;;;;;5357651;26;19929;-91
2024/04/14 10:20:11;;;;;;;;;;;17.00;52.90;;;;;;5357751;26;19940;-91
2024/04/14 10:22:38;;;;;;;;;;;17.30;52.00;;;;;;5388024;26;19940;-91
2024/04/14 10:25:07;;;;;;;;;;;17.70;51.60;;;;;;5358548;26;19929;-91
2024/04/14 10:27:36;;;;;;;;;;;16.70;53.40;;;;;;5359493;26;19928;-91
2024/04/14 10:30:03;;;;;;;;;;;17.30;52.40;;;;;;5358621;26;19936;-91
2024/04/14 10:32:29;;;;;;;;;;;17.50;51.90;;;;;;5359151;26;19936;-91
2024/04/14 10:34:55;;;;;;;;;;;17.70;50.50;;;;;;5358482;26;19965;-91
2024/04/14 10:37:24;;;;;;;;;;;18.10;48.10;;;;;;5357465;26;19928;-91
2024/04/14 10:39:51;;;;;;;;;;;18.10;48.40;;;;;;5358574;26;19929;-91
2024/04/14 10:42:17;;;;;;;;;;;18.20;47.40;;;;;;5358725;26;19953;-91
2024/04/14 10:44:43;;;;;;;;;;;18.50;46.50;;;;;;5418588;26;20255;-91
2024/04/14 10:47:10;;;;;;;;;;;18.20;45.50;;;;;;5357923;26;19933;-91
2024/04/14 10:49:36;;;;;;;;;;;17.60;46.90;;;;;;5387220;26;19929;-91
2024/04/14 10:52:02;;;;;;;;;;;17.10;48.80;;;;;;5358294;26;19936;-91
2024/04/14 10:54:29;;;;;;;;;;;17.30;48.40;;;;;;5388057;26;19929;-91
2024/04/14 10:56:56;;;;;;;;;;;17.40;48.00;;;;;;5358275;26;22395;-91
2024/04/14 10:59:22;;;;;;;;;;;18.10;47.50;;;;;;5357876;26;19998;-91
2024/04/14 11:01:48;;;;;;;;;;;18.40;46.60;;;;;;5358535;26;19929;-91
2024/04/14 11:04:16;;;;;;;;;;;19.20;44.40;;;;;;5358061;26;20281;-91
2024/04/14 11:06:45;;;;;;;;;;;19.80;43.20;;;;;;5356889;26;19933;-91
2024/04/14 11:09:11;;;;;;;;;;;19.50;42.80;;;;;;5357443;26;19940;-91
2024/04/14 11:11:37;;;;;;;;;;;20.30;41.40;;;;;;5358448;26;19937;-91
2024/04/14 11:14:03;;;;;;;;;;;21.00;39.70;;;;;;5357486;26;20428;-91
2024/04/14 11:16:28;;;;;;;;;;;21.90;37.50;;;;;;5357735;26;19965;-91
2024/04/14 11:18:55;;;;;;;;;;;22.40;36.40;;;;;;5357352;26;19935;-91
2024/04/14 11:21:23;;;;;;;;;;;23.20;34.60;;;;;;5357940;26;19929;-91
2024/04/14 11:23:49;;;;;;;;;;;22.70;34.50;;;;;;5387163;26;19990;-91
2024/04/14 11:26:15;;;;;;;;;;;22.60;34.80;;;;;;5387639;26;19929;-91
2024/04/14 11:28:40;;;;;;;;;;;22.10;34.40;;;;;;5387150;26;19936;-91
2024/04/14 11:31:07;;;;;;;;;;;21.80;34.90;;;;;;5385232;26;19935;-91
2024/04/14 11:33:32;;;;;;;;;;;22.00;34.40;;;;;;5357728;26;19933;-91
2024/04/14 11:35:58;;;;;;;;;;;22.30;32.80;;;;;;5356482;26;19948;-91
2024/04/14 11:38:28;;;;;;;;;;;23.60;31.80;;;;;;5357661;26;19929;-91
2024/04/14 11:40:54;;;;;;;;;;;24.10;31.00;;;;;;5357882;26;19929;-92
2024/04/14 11:43:20;;;;;;;;;;;24.80;31.20;;;;;;5357173;26;19936;-91
2024/04/14 11:45:51;;;;;;;;;;;24.40;30.40;;;;;;5357572;26;19929;-91
2024/04/14 11:48:17;;;;;;;;;;;23.90;30.90;;;;;;5386137;26;19929;-91
2024/04/14 11:50:43;;;;;;;;;;;24.50;30.50;;;;;;5357339;26;19998;-91
2024/04/14 11:53:09;;;;;;;;;;;24.50;30.60;;;;;;5357358;26;19937;-92
2024/04/14 11:55:34;;;;;;;;;;;23.40;31.60;;;;;;5357727;26;19957;-91
2024/04/14 11:58:00;;;;;;;;;;;23.20;32.00;;;;;;5357157;26;19975;-91
2024/04/14 12:00:26;;;;;;;;;;;22.60;33.10;;;;;;5357417;26;19929;-91
2024/04/14 12:02:51;;;;;;;;;;;22.90;33.30;;;;;;5356785;26;19933;-91
2024/04/14 12:05:18;;;;;;;;;;;22.60;33.30;;;;;;5355947;26;19979;-91
2024/04/14 12:07:45;;;;;;;;;;;23.30;32.30;;;;;;5357187;26;19929;-91
2024/04/14 12:10:11;;;;;;;;;;;24.10;31.00;;;;;;5357090;26;19933;-91
2024/04/14 12:12:37;;;;;;;;;;;23.40;32.40;;;;;;5357264;26;19937;-91
2024/04/14 12:15:04;;;;;;;;;;;23.00;32.70;;;;;;5356519;26;19929;-91
2024/04/14 12:17:30;;;;;;;;;;;22.50;33.50;;;;;;5386608;26;19965;-91
2024/04/14 12:19:56;;;;;;;;;;;23.20;32.40;;;;;;5357496;26;20243;-91
2024/04/14 12:22:22;;;;;;;;;;;24.40;30.70;;;;;;5357263;26;19929;-91
2024/04/14 12:24:47;;;;;;;;;;;25.30;30.20;;;;;;5386292;26;19935;-91
2024/04/14 12:27:13;;;;;;;;;;;25.70;29.40;;;;;;5386400;26;19937;-91
2024/04/14 12:29:38;;;;;;;;;;;25.30;29.30;;;;;;5357368;26;19929;-91
2024/04/14 12:32:04;;;;;;;;;;;23.90;30.20;;;;;;5356631;26;20383;-91
2024/04/14 12:34:29;;;;;;;;;;;24.60;29.60;;;;;;5355915;26;19940;-91
2024/04/14 12:36:55;;;;;;;;;;;25.10;29.90;;;;;;5357029;26;19933;-91
2024/04/14 12:39:20;;;;;;;;;;;26.00;28.80;;;;;;5385726;26;20248;-91
2024/04/14 12:41:46;;;;;;;;;;;26.50;28.40;;;;;;5357481;26;20247;-91
2024/04/14 12:44:12;;;;;;;;;;;25.00;29.30;;;;;;5359714;26;19944;-91
2024/04/14 12:46:37;;;;;;;;;;;25.40;28.70;;;;;;5360509;26;19936;-91
2024/04/14 12:49:03;;;;;;;;;;;26.10;28.10;;;;;;5360125;26;19936;-91
2024/04/14 12:51:28;;;;;;;;;;;27.10;27.10;;;;;;5389884;26;19929;-91
2024/04/14 12:53:54;;;;;;;;;;;27.40;26.90;;;;;;5389848;26;19939;-91
2024/04/14 12:56:20;;;;;;;;;;;27.40;26.80;;;;;;5360353;26;19929;-91
2024/04/14 12:58:45;;;;;;;;;;;27.60;25.70;;;;;;5360316;26;19929;-91
2024/04/14 13:01:11;;;;;;;;;;;27.10;26.20;;;;;;5359589;26;19936;-91
2024/04/14 13:03:37;;;;;;;;;;;27.30;26.50;;;;;;5359189;26;19929;-91
2024/04/14 13:06:02;;;;;;;;;;;26.30;27.60;;;;;;5360281;26;19929;-91
2024/04/14 13:08:28;;;;;;;;;;;26.80;26.40;;;;;;5359348;26;19933;-91
2024/04/14 13:10:54;;;;;;;;;;;25.80;27.10;;;;;;5359715;26;19936;-91
2024/04/14 13:13:19;;;;;;;;;;;26.60;26.90;;;;;;5388277;26;20352;-91
2024/04/14 13:15:46;;;;;;;;;;;27.80;25.90;;;;;;5359750;26;19965;-92
2024/04/14 13:18:14;;;;;;;;;;;27.20;26.50;;;;;;5359538;26;19929;-91
2024/04/14 13:20:40;;;;;;;;;;;27.40;26.20;;;;;;5360042;26;19937;-92
2024/04/14 13:23:06;;;;;;;;;;;26.60;27.00;;;;;;5388727;26;19929;-91
2024/04/14 13:25:31;;;;;;;;;;;25.50;27.20;;;;;;5359596;26;19937;-91
2024/04/14 13:27:57;;;;;;;;;;;24.80;27.50;;;;;;5359696;26;20417;-91
2024/04/14 13:30:22;;;;;;;;;;;24.70;27.90;;;;;;5358639;26;20387;-91
2024/04/14 13:32:48;;;;;;;;;;;24.50;28.60;;;;;;5359015;26;19929;-91
2024/04/14 13:35:13;;;;;;;;;;;24.50;28.50;;;;;;5359155;26;19968;-91
2024/04/14 13:37:39;;;;;;;;;;;24.30;29.10;;;;;;5358401;26;19957;-91
2024/04/14 13:40:05;;;;;;;;;;;24.80;28.40;;;;;;5359467;26;19929;-91
2024/04/14 13:42:30;;;;;;;;;;;24.30;28.80;;;;;;5359174;26;19942;-91
2024/04/14 13:44:56;;;;;;;;;;;23.90;28.70;;;;;;5388464;26;19962;-91
2024/04/14 13:47:21;;;;;;;;;;;24.00;29.10;;;;;;5388519;26;19941;-91
2024/04/14 13:49:47;;;;;;;;;;;24.10;29.30;;;;;;5358560;26;19933;-91
2024/04/14 13:52:13;;;;;;;;;;;25.00;28.10;;;;;;5388613;26;19929;-91
2024/04/14 13:54:39;;;;;;;;;;;24.90;28.40;;;;;;5358165;26;19929;-91
2024/04/14 13:57:07;;;;;;;;;;;25.00;28.60;;;;;;5388684;26;19929;-91
2024/04/14 13:59:33;;;;;;;;;;;24.20;29.40;;;;;;5388245;26;19998;-91
2024/04/14 14:01:58;;;;;;;;;;;25.20;28.40;;;;;;5358499;26;19929;-91
2024/04/14 14:04:24;;;;;;;;;;;26.50;27.30;;;;;;5358688;26;19928;-91
2024/04/14 14:06:49;;;;;;;;;;;28.40;25.80;;;;;;5358085;26;19929;-92
2024/04/14 14:09:15;;;;;;;;;;;29.80;25.10;;;;;;5388411;26;19929;-92